createdAt,value
2019-05-22T00:01:42.878Z,14.20
2019-05-22T00:04:16.774Z,14.20
2019-05-22T00:06:48.346Z,14.20
2019-05-22T00:09:19.586Z,14.20
2019-05-22T00:11:49.880Z,14.10
2019-05-22T00:14:20.544Z,14.10
2019-05-22T00:16:50.330Z,14.10
2019-05-22T00:19:20.742Z,14.10
2019-05-22T00:21:52.133Z,14.00
2019-05-22T00:24:23.172Z,14.00
2019-05-22T00:26:54.671Z,13.90
2019-05-22T00:29:25.402Z,13.90
2019-05-22T00:31:56.081Z,13.90
2019-05-22T00:34:26.242Z,13.80
2019-05-22T00:36:56.623Z,13.80
2019-05-22T00:39:27.988Z,13.80
2019-05-22T00:41:58.310Z,13.90
2019-05-22T00:44:29.352Z,13.90
2019-05-22T00:47:01.114Z,13.90
2019-05-22T00:49:33.281Z,13.90
2019-05-22T00:52:04.613Z,13.90
2019-05-22T00:54:40.176Z,13.80
2019-05-22T00:57:23.608Z,13.80
2019-05-22T00:59:55.366Z,13.70
2019-05-22T01:02:31.017Z,13.80
2019-05-22T01:05:00.935Z,13.70
2019-05-22T01:07:37.401Z,13.70
2019-05-22T01:10:11.333Z,13.70
2019-05-22T01:12:43.178Z,13.70
2019-05-22T01:15:15.879Z,13.60
2019-05-22T01:17:47.299Z,13.50
2019-05-22T01:20:18.843Z,13.50
2019-05-22T01:22:49.282Z,13.50
2019-05-22T01:25:24.212Z,13.50
2019-05-22T01:27:55.565Z,13.50
2019-05-22T01:30:33.670Z,13.50
2019-05-22T01:33:06.480Z,13.40
2019-05-22T01:35:40.873Z,13.40
2019-05-22T01:38:12.939Z,13.40
2019-05-22T01:40:50.431Z,13.40
2019-05-22T01:43:27.629Z,13.40
2019-05-22T01:45:59.330Z,13.30
2019-05-22T01:48:40.759Z,13.30
2019-05-22T01:51:11.493Z,13.30
2019-05-22T01:53:42.434Z,13.30
2019-05-22T01:56:13.558Z,13.30
2019-05-22T01:58:45.359Z,13.30
2019-05-22T02:01:23.890Z,13.30
2019-05-22T02:03:56.021Z,13.40
2019-05-22T02:06:26.445Z,13.50
2019-05-22T02:09:03.837Z,13.50
2019-05-22T02:11:33.902Z,13.50
2019-05-22T02:14:10.221Z,13.50
2019-05-22T02:16:56.055Z,13.60
2019-05-22T02:19:16.701Z,13.60
2019-05-22T02:21:47.856Z,13.60
2019-05-22T02:24:19.096Z,13.70
2019-05-22T02:26:49.116Z,13.70
2019-05-22T02:29:20.465Z,13.70
2019-05-22T02:31:55.000Z,13.70
2019-05-22T02:34:22.854Z,13.80
2019-05-22T02:36:53.954Z,13.80
2019-05-22T02:39:30.669Z,13.90
2019-05-22T02:42:15.546Z,13.90
2019-05-22T02:44:45.926Z,13.90
2019-05-22T02:47:20.479Z,13.90
2019-05-22T02:49:50.397Z,13.90
2019-05-22T02:52:22.266Z,13.80
2019-05-22T02:54:51.972Z,13.70
2019-05-22T02:57:22.083Z,13.60
2019-05-22T02:59:52.321Z,13.60
2019-05-22T03:02:23.664Z,13.60
2019-05-22T03:04:57.615Z,13.70
2019-05-22T03:07:30.508Z,13.70
2019-05-22T03:10:01.923Z,13.70
2019-05-22T03:12:33.355Z,13.70
2019-05-22T03:15:04.297Z,13.80
2019-05-22T03:17:35.281Z,13.80
2019-05-22T03:20:17.442Z,13.90
2019-05-22T03:23:03.230Z,13.90
2019-05-22T03:25:33.535Z,13.90
2019-05-22T03:28:06.867Z,14.00
2019-05-22T03:30:40.249Z,14.00
2019-05-22T03:33:10.547Z,14.00
2019-05-22T03:35:47.271Z,14.00
2019-05-22T03:38:19.207Z,14.00
2019-05-22T03:40:52.452Z,14.00
2019-05-22T03:43:24.957Z,14.00
2019-05-22T03:45:56.462Z,14.00
2019-05-22T03:48:27.979Z,14.10
2019-05-22T03:51:00.865Z,14.10
2019-05-22T03:53:30.794Z,14.10
2019-05-22T03:56:01.107Z,14.20
2019-05-22T03:58:30.712Z,14.20
2019-05-22T04:01:03.599Z,14.20
2019-05-22T04:03:35.358Z,14.20
2019-05-22T04:06:06.639Z,14.20
2019-05-22T04:08:37.380Z,14.30
2019-05-22T04:11:08.583Z,14.30
2019-05-22T04:13:38.964Z,14.30
2019-05-22T04:16:10.572Z,14.30
2019-05-22T04:18:40.920Z,14.40
2019-05-22T04:21:10.698Z,14.40
2019-05-22T04:23:40.718Z,14.40
2019-05-22T04:26:12.068Z,14.50
2019-05-22T04:28:51.159Z,14.50
2019-05-22T04:31:30.740Z,14.50
2019-05-22T04:34:00.940Z,14.50
2019-05-22T04:36:30.935Z,14.50
2019-05-22T04:39:02.313Z,14.60
2019-05-22T04:41:33.367Z,14.60
2019-05-22T04:44:05.229Z,14.60
2019-05-22T04:46:35.042Z,14.60
2019-05-22T04:49:05.162Z,14.70
2019-05-22T04:51:35.081Z,14.70
2019-05-22T04:54:05.082Z,14.70
2019-05-22T04:56:34.805Z,14.70
2019-05-22T04:59:05.652Z,14.70
2019-05-22T05:01:36.059Z,14.70
2019-05-22T05:04:07.315Z,14.70
2019-05-22T05:06:37.848Z,14.80
2019-05-22T05:09:10.874Z,14.80
2019-05-22T05:11:42.692Z,14.80
2019-05-22T05:14:12.503Z,14.90
2019-05-22T05:16:42.316Z,14.90
2019-05-22T05:19:12.299Z,14.90
2019-05-22T05:21:43.578Z,14.90
2019-05-22T05:24:13.293Z,14.90
2019-05-22T05:26:43.710Z,14.90
2019-05-22T05:29:25.102Z,14.90
2019-05-22T05:31:55.419Z,15.00
2019-05-22T05:34:46.421Z,15.00
2019-05-22T05:37:18.604Z,15.00
2019-05-22T05:43:07.488Z,15.00
2019-05-22T05:45:39.653Z,15.10
2019-05-22T05:48:14.668Z,15.10
2019-05-22T05:51:06.333Z,15.20
2019-05-22T05:53:58.623Z,15.20
2019-05-22T05:56:31.947Z,15.20
2019-05-22T05:59:04.913Z,15.20
2019-05-22T06:01:36.649Z,15.20
2019-05-22T06:04:06.584Z,15.30
2019-05-22T06:06:41.866Z,15.40
2019-05-22T06:09:14.837Z,15.50
2019-05-22T06:11:48.885Z,15.70
2019-05-22T06:14:30.304Z,15.90
2019-05-22T06:17:07.731Z,16.10
2019-05-22T06:19:41.196Z,16.20
2019-05-22T06:22:12.544Z,16.40
2019-05-22T06:24:56.366Z,16.50
2019-05-22T06:27:31.509Z,16.50
2019-05-22T06:30:04.367Z,16.60
2019-05-22T06:32:57.895Z,16.90
2019-05-22T06:35:32.014Z,17.00
2019-05-22T06:38:05.206Z,16.90
2019-05-22T06:40:35.589Z,17.10
2019-05-22T06:43:25.047Z,17.20
2019-05-22T06:45:55.404Z,17.40
2019-05-22T06:48:25.208Z,17.80
2019-05-22T06:50:55.178Z,18.00
2019-05-22T06:53:25.136Z,18.30
2019-05-22T06:55:54.952Z,18.40
2019-05-22T06:58:25.148Z,18.80
2019-05-22T07:00:54.799Z,19.10
2019-05-22T07:03:24.929Z,19.40
2019-05-22T07:05:54.705Z,20.10
2019-05-22T07:08:24.443Z,21.10
2019-05-22T07:10:54.040Z,21.10
2019-05-22T07:13:23.959Z,20.40
2019-05-22T07:15:54.384Z,20.30
2019-05-22T07:18:26.690Z,20.20
2019-05-22T07:20:56.989Z,20.10
2019-05-22T07:23:27.668Z,19.90
2019-05-22T07:25:58.868Z,19.80
2019-05-22T07:28:29.149Z,19.90
2019-05-22T07:30:59.389Z,19.80
2019-05-22T07:33:29.320Z,19.50
2019-05-22T07:36:09.968Z,19.40
2019-05-22T07:38:30.583Z,19.50
2019-05-22T07:41:00.601Z,19.50
2019-05-22T07:43:30.414Z,19.60
2019-05-22T07:46:00.228Z,19.40
2019-05-22T07:48:31.613Z,19.50
2019-05-22T07:51:04.436Z,19.70
2019-05-22T07:53:34.164Z,20.00
2019-05-22T07:56:08.688Z,20.30
2019-05-22T07:58:38.649Z,20.20
2019-05-22T08:01:09.660Z,19.90
2019-05-22T08:03:40.804Z,19.80
2019-05-22T08:06:11.788Z,19.90
2019-05-22T08:08:43.765Z,20.00
2019-05-22T08:11:14.714Z,20.20
2019-05-22T08:13:45.099Z,20.10
2019-05-22T08:16:16.031Z,20.40
2019-05-22T08:18:46.158Z,20.80
2019-05-22T08:21:15.837Z,21.60
2019-05-22T08:23:45.748Z,22.90
2019-05-22T08:26:16.831Z,24.10
2019-05-22T08:28:47.113Z,24.00
2019-05-22T08:31:18.241Z,24.40
2019-05-22T08:33:48.157Z,24.70
2019-05-22T08:36:18.114Z,24.90
2019-05-22T08:38:47.904Z,25.20
2019-05-22T08:41:20.922Z,24.90
2019-05-22T08:44:13.875Z,24.80
2019-05-22T08:46:23.134Z,25.40
2019-05-22T08:48:54.913Z,26.70
2019-05-22T08:51:24.952Z,28.20
2019-05-22T08:57:00.511Z,29.80
2019-05-22T08:59:30.565Z,30.20
2019-05-22T09:02:00.526Z,28.70
2019-05-22T09:04:30.220Z,28.70
2019-05-22T09:07:00.385Z,28.90
2019-05-22T09:09:30.022Z,28.00
2019-05-22T09:11:59.880Z,27.20
2019-05-22T09:14:29.360Z,27.60
2019-05-22T09:16:59.222Z,27.40
2019-05-22T09:19:29.327Z,27.30
2019-05-22T09:21:59.059Z,28.30
2019-05-22T09:24:28.999Z,29.20
2019-05-22T09:27:02.601Z,29.40
2019-05-22T09:29:30.472Z,28.50
2019-05-22T09:32:00.506Z,28.20
2019-05-22T09:34:30.173Z,27.50
2019-05-22T09:36:59.980Z,26.60
2019-05-22T09:39:29.924Z,27.00
2019-05-22T09:41:59.715Z,26.70
2019-05-22T09:44:29.374Z,25.80
2019-05-22T09:46:59.257Z,26.00
2019-05-22T09:49:29.655Z,27.10
2019-05-22T09:51:59.537Z,27.30
2019-05-22T09:54:31.314Z,27.70
2019-05-22T09:57:01.282Z,28.30
2019-05-22T09:59:30.857Z,28.10
2019-05-22T10:02:00.903Z,27.50
2019-05-22T10:04:31.196Z,26.80
2019-05-22T10:07:00.869Z,26.10
2019-05-22T10:09:31.185Z,26.60
2019-05-22T10:12:01.240Z,27.30
2019-05-22T10:14:30.946Z,27.90
2019-05-22T10:17:01.180Z,28.40
2019-05-22T10:19:31.610Z,28.60
2019-05-22T10:22:02.135Z,29.60
2019-05-22T10:24:31.958Z,29.80
2019-05-22T10:27:02.082Z,28.70
2019-05-22T10:29:32.494Z,27.70
2019-05-22T10:32:03.308Z,27.20
2019-05-22T10:34:33.417Z,27.50
2019-05-22T10:37:04.091Z,27.30
2019-05-22T10:39:34.412Z,27.60
2019-05-22T10:42:03.974Z,27.80
2019-05-22T10:44:33.991Z,28.00
2019-05-22T10:47:04.564Z,27.80
2019-05-22T10:49:34.621Z,27.30
2019-05-22T10:52:05.447Z,27.80
2019-05-22T10:54:35.133Z,28.00
2019-05-22T10:57:05.970Z,27.30
2019-05-22T10:59:35.602Z,27.00
2019-05-22T11:02:06.516Z,27.10
2019-05-22T11:04:37.351Z,27.30
2019-05-22T11:07:08.087Z,27.40
2019-05-22T11:09:38.863Z,27.10
2019-05-22T11:12:10.004Z,27.50
2019-05-22T11:14:39.979Z,26.90
2019-05-22T11:17:11.454Z,26.60
2019-05-22T11:19:41.619Z,26.50
2019-05-22T11:22:13.500Z,26.70
2019-05-22T11:24:43.261Z,26.90
2019-05-22T11:27:13.681Z,26.60
2019-05-22T11:29:43.576Z,26.00
2019-05-22T11:32:15.296Z,25.60
2019-05-22T11:34:45.088Z,25.40
2019-05-22T11:37:14.986Z,25.40
2019-05-22T11:39:45.462Z,25.60
2019-05-22T11:42:15.303Z,25.70
2019-05-22T11:44:44.898Z,25.90
2019-05-22T11:47:15.181Z,26.00
2019-05-22T11:49:45.184Z,25.70
2019-05-22T11:52:15.595Z,25.50
2019-05-22T11:54:45.791Z,26.00
2019-05-22T11:57:15.988Z,26.60
2019-05-22T11:59:46.346Z,26.50
2019-05-22T12:02:16.045Z,26.50
2019-05-22T12:04:48.523Z,25.70
2019-05-22T12:07:17.117Z,25.10
2019-05-22T12:09:47.529Z,25.20
2019-05-22T12:12:17.854Z,25.70
2019-05-22T12:14:47.774Z,25.90
2019-05-22T12:17:34.787Z,26.00
2019-05-22T12:19:49.581Z,26.30
2019-05-22T12:22:20.021Z,26.10
2019-05-22T12:24:50.202Z,26.40
2019-05-22T12:27:20.049Z,26.30
2019-05-22T12:29:50.136Z,26.20
2019-05-22T12:32:20.537Z,26.60
2019-05-22T12:34:50.504Z,25.90
2019-05-22T12:37:20.389Z,25.80
2019-05-22T12:39:50.589Z,26.10
2019-05-22T12:42:21.749Z,26.30
2019-05-22T12:44:51.330Z,26.40
2019-05-22T12:47:22.126Z,26.70
2019-05-22T12:49:52.651Z,27.10
2019-05-22T12:52:22.658Z,26.90
2019-05-22T12:54:53.452Z,26.90
2019-05-22T12:57:23.994Z,25.90
2019-05-22T12:59:53.570Z,25.00
2019-05-22T13:02:24.324Z,24.50
2019-05-22T13:04:54.386Z,24.10
2019-05-22T13:07:25.278Z,24.20
2019-05-22T13:09:55.208Z,24.80
2019-05-22T13:12:25.520Z,25.80
2019-05-22T13:15:09.183Z,26.30
2019-05-22T13:17:28.677Z,26.70
2019-05-22T13:19:58.465Z,27.20
2019-05-22T13:22:30.334Z,26.90
2019-05-22T13:25:01.985Z,26.20
2019-05-22T13:27:32.922Z,26.40
2019-05-22T13:30:05.531Z,26.60
2019-05-22T13:32:36.128Z,27.20
2019-05-22T13:35:07.831Z,27.60
2019-05-22T13:37:37.529Z,28.00
2019-05-22T13:40:07.653Z,27.90
2019-05-22T13:42:37.466Z,27.30
2019-05-22T13:45:07.350Z,26.70
2019-05-22T13:47:37.622Z,26.40
2019-05-22T13:50:09.248Z,26.10
2019-05-22T13:52:39.532Z,26.10
2019-05-22T13:55:10.830Z,26.00
2019-05-22T13:57:41.450Z,26.30
2019-05-22T14:00:14.213Z,26.30
2019-05-22T14:02:43.813Z,26.70
2019-05-22T14:05:15.411Z,27.50
2019-05-22T14:07:46.005Z,27.70
2019-05-22T14:10:16.704Z,27.80
2019-05-22T14:12:46.969Z,27.30
2019-05-22T14:15:17.763Z,27.30
2019-05-22T14:17:47.604Z,26.70
2019-05-22T14:20:18.378Z,26.60
2019-05-22T14:22:48.254Z,26.40
2019-05-22T14:25:19.889Z,26.10
2019-05-22T14:27:49.628Z,26.50
2019-05-22T14:30:20.307Z,26.80
2019-05-22T14:32:50.170Z,27.20
2019-05-22T14:35:20.257Z,27.00
2019-05-22T14:37:50.441Z,27.00
2019-05-22T14:40:20.604Z,27.00
2019-05-22T14:42:50.378Z,27.40
2019-05-22T14:45:20.277Z,27.40
2019-05-22T14:47:49.965Z,27.20
2019-05-22T14:50:21.401Z,27.40
2019-05-22T14:52:51.787Z,27.40
2019-05-22T14:55:22.380Z,27.30
2019-05-22T14:57:54.461Z,26.40
2019-05-22T15:00:24.670Z,26.20
2019-05-22T15:02:58.002Z,26.10
2019-05-22T15:05:27.011Z,26.00
2019-05-22T15:07:56.748Z,26.00
2019-05-22T15:10:27.906Z,25.80
2019-05-22T15:12:57.699Z,26.00
2019-05-22T15:15:27.695Z,26.30
2019-05-22T15:17:57.693Z,26.50
2019-05-22T15:20:29.210Z,26.70
2019-05-22T15:22:58.867Z,26.80
2019-05-22T15:25:29.500Z,26.70
2019-05-22T15:28:00.282Z,26.40
2019-05-22T15:30:30.680Z,26.30
2019-05-22T15:33:00.521Z,26.30
2019-05-22T15:35:30.426Z,26.40
2019-05-22T15:38:00.632Z,26.50
2019-05-22T15:40:30.438Z,26.60
2019-05-22T15:43:00.943Z,26.40
2019-05-22T15:45:32.353Z,26.40
2019-05-22T15:48:06.108Z,26.30
2019-05-22T15:50:37.344Z,26.20
2019-05-22T15:53:13.220Z,26.20
2019-05-22T15:55:42.686Z,26.00
2019-05-22T15:58:15.425Z,25.70
2019-05-22T16:00:47.713Z,25.50
2019-05-22T16:03:21.152Z,25.40
2019-05-22T16:05:53.689Z,25.60
2019-05-22T16:08:23.597Z,25.50
2019-05-22T16:10:59.672Z,25.20
2019-05-22T16:13:31.840Z,25.00
2019-05-22T16:16:04.050Z,25.20
2019-05-22T16:18:37.324Z,25.30
2019-05-22T16:21:10.312Z,25.30
2019-05-22T16:23:40.951Z,25.30
2019-05-22T16:26:11.801Z,25.20
2019-05-22T16:28:44.435Z,24.80
2019-05-22T16:31:14.847Z,24.80
2019-05-22T16:33:47.254Z,24.70
2019-05-22T16:36:18.768Z,24.60
2019-05-22T16:38:49.973Z,24.60
2019-05-22T16:41:20.803Z,24.70
2019-05-22T16:43:51.197Z,24.70
2019-05-22T16:46:22.405Z,24.70
2019-05-22T16:48:53.003Z,24.80
2019-05-22T16:51:23.301Z,24.70
2019-05-22T16:53:55.879Z,24.40
2019-05-22T16:56:27.864Z,24.30
2019-05-22T16:58:57.854Z,24.10
2019-05-22T17:01:28.686Z,23.90
2019-05-22T17:04:01.340Z,23.80
2019-05-22T17:06:31.818Z,23.80
2019-05-22T17:09:03.893Z,23.70
2019-05-22T17:11:37.366Z,23.60
2019-05-22T17:14:08.814Z,23.50
2019-05-22T17:16:39.724Z,23.30
2019-05-22T17:19:25.631Z,23.10
2019-05-22T17:21:41.491Z,22.80
2019-05-22T17:24:13.873Z,22.50
2019-05-22T17:26:44.767Z,22.10
2019-05-22T17:29:14.960Z,21.60
2019-05-22T17:31:46.069Z,21.20
2019-05-22T17:34:31.956Z,20.80
2019-05-22T17:37:06.339Z,20.50
2019-05-22T17:39:38.239Z,20.20
2019-05-22T17:42:10.607Z,20.00
2019-05-22T17:44:45.994Z,19.80
2019-05-22T17:47:17.397Z,19.60
2019-05-22T17:49:48.754Z,19.30
2019-05-22T17:52:21.060Z,19.30
2019-05-22T17:54:52.770Z,19.10
2019-05-22T17:57:23.344Z,18.90
2019-05-22T17:59:53.648Z,18.90
2019-05-22T18:02:25.194Z,19.00
2019-05-22T18:04:56.277Z,19.10
2019-05-22T18:07:26.828Z,19.20
2019-05-22T18:09:56.439Z,19.10
2019-05-22T18:12:27.733Z,19.10
2019-05-22T18:14:57.475Z,19.00
2019-05-22T18:17:27.447Z,18.70
2019-05-22T18:19:57.227Z,18.60
2019-05-22T18:22:26.820Z,18.60
2019-05-22T18:24:56.744Z,18.60
2019-05-22T18:27:26.755Z,18.70
2019-05-22T18:29:56.453Z,18.70
2019-05-22T18:32:26.355Z,18.80
2019-05-22T18:34:55.889Z,18.80
2019-05-22T18:37:26.624Z,18.80
2019-05-22T18:39:56.098Z,18.90
2019-05-22T18:42:25.902Z,18.90
2019-05-22T18:44:55.534Z,18.90
2019-05-22T18:47:25.578Z,18.90
2019-05-22T18:49:55.247Z,18.80
2019-05-22T18:52:39.886Z,18.70
2019-05-22T18:54:56.828Z,18.80
2019-05-22T18:57:26.632Z,18.70
2019-05-22T19:00:02.677Z,18.70
2019-05-22T19:02:27.863Z,18.70
2019-05-22T19:04:57.505Z,18.70
2019-05-22T19:07:27.338Z,18.60
2019-05-22T19:09:57.125Z,18.60
2019-05-22T19:12:27.044Z,18.60
2019-05-22T19:14:56.855Z,18.50
2019-05-22T19:17:27.154Z,18.50
2019-05-22T19:19:56.938Z,18.50
2019-05-22T19:22:27.218Z,18.40
2019-05-22T19:24:56.928Z,18.40
2019-05-22T19:27:26.658Z,18.40
2019-05-22T19:29:56.584Z,18.30
2019-05-22T19:32:26.257Z,18.20
2019-05-22T19:34:55.979Z,18.20
2019-05-22T19:37:25.788Z,18.20
2019-05-22T19:39:56.143Z,18.10
2019-05-22T19:42:26.068Z,18.00
2019-05-22T19:44:55.879Z,18.00
2019-05-22T19:47:25.768Z,18.10
2019-05-22T19:49:55.674Z,18.00
2019-05-22T19:52:40.370Z,18.00
2019-05-22T19:54:57.757Z,17.90
2019-05-22T19:57:27.572Z,17.80
2019-05-22T19:59:57.204Z,17.80
2019-05-22T20:02:27.341Z,17.80
2019-05-22T20:04:57.860Z,17.80
2019-05-22T20:07:28.667Z,17.80
2019-05-22T20:09:58.887Z,17.90
2019-05-22T20:12:29.661Z,17.90
2019-05-22T20:14:59.569Z,17.90
2019-05-22T20:17:29.652Z,17.90
2019-05-22T20:19:59.575Z,17.80
2019-05-22T20:22:29.989Z,17.80
2019-05-22T20:25:00.153Z,17.80
2019-05-22T20:27:29.958Z,17.80
2019-05-22T20:30:00.348Z,17.70
2019-05-22T20:32:32.112Z,17.70
2019-05-22T20:35:01.933Z,17.60
2019-05-22T20:37:33.503Z,17.60
2019-05-22T20:40:04.210Z,17.40
2019-05-22T20:42:34.259Z,17.40
2019-05-22T20:45:06.400Z,17.30
2019-05-22T20:47:42.063Z,17.20
2019-05-22T20:50:12.734Z,17.20
2019-05-22T20:52:44.675Z,17.20
2019-05-22T20:55:16.531Z,17.10
2019-05-22T20:57:48.011Z,17.10
2019-05-22T21:00:20.245Z,17.10
2019-05-22T21:02:53.534Z,17.00
2019-05-22T21:05:25.403Z,16.90
2019-05-22T21:07:58.571Z,16.90
2019-05-22T21:10:30.227Z,16.90
2019-05-22T21:13:00.834Z,16.90
2019-05-22T21:15:31.419Z,16.80
2019-05-22T21:18:03.188Z,16.80
2019-05-22T21:20:34.484Z,16.70
2019-05-22T21:23:05.092Z,16.60
2019-05-22T21:25:34.802Z,16.50
2019-05-22T21:28:05.781Z,16.50
2019-05-22T21:30:38.794Z,16.40
2019-05-22T21:33:10.141Z,16.40
2019-05-22T21:35:40.642Z,16.40
2019-05-22T21:38:11.636Z,16.30
2019-05-22T21:40:41.745Z,16.40
2019-05-22T21:43:12.063Z,16.40
2019-05-22T21:45:41.882Z,16.30
2019-05-22T21:48:11.646Z,16.30
2019-05-22T21:50:41.616Z,16.30
2019-05-22T21:53:12.675Z,16.30
2019-05-22T21:55:45.622Z,16.40
2019-05-22T21:58:14.460Z,16.40
2019-05-22T22:00:48.666Z,16.40
2019-05-22T22:03:22.134Z,16.50
2019-05-22T22:05:51.805Z,16.60
2019-05-22T22:08:22.091Z,16.60
2019-05-22T22:10:51.742Z,16.60
2019-05-22T22:13:21.239Z,16.60
2019-05-22T22:15:51.600Z,16.60
2019-05-22T22:18:24.549Z,16.50
2019-05-22T22:20:53.433Z,16.50
2019-05-22T22:23:23.106Z,16.50
2019-05-22T22:25:53.504Z,16.50
2019-05-22T22:28:25.205Z,16.50
2019-05-22T22:30:57.749Z,16.60
2019-05-22T22:33:31.371Z,16.60
2019-05-22T22:36:02.369Z,16.70
2019-05-22T22:38:33.362Z,16.70
2019-05-22T22:41:04.951Z,16.80
2019-05-22T22:43:37.913Z,16.70
2019-05-22T22:46:24.136Z,16.60
2019-05-22T22:48:57.257Z,16.60
2019-05-22T22:51:27.408Z,16.40
2019-05-22T22:53:57.707Z,16.30
2019-05-22T22:56:29.135Z,16.20
2019-05-22T22:58:59.474Z,16.20
2019-05-22T23:01:31.090Z,16.20
2019-05-22T23:04:03.529Z,16.20
2019-05-22T23:06:36.040Z,16.20
2019-05-22T23:09:07.272Z,16.20
2019-05-22T23:11:39.486Z,16.20
2019-05-22T23:14:10.189Z,16.20
2019-05-22T23:16:40.968Z,16.20
2019-05-22T23:19:17.203Z,16.00
2019-05-22T23:21:48.706Z,16.00
2019-05-22T23:24:20.040Z,16.00
2019-05-22T23:26:50.784Z,16.10
2019-05-22T23:29:21.230Z,16.10
2019-05-22T23:31:51.341Z,16.10
2019-05-22T23:34:20.984Z,16.10
2019-05-22T23:36:51.015Z,15.90
2019-05-22T23:39:21.628Z,15.80
2019-05-22T23:41:55.712Z,15.70
2019-05-22T23:44:25.303Z,15.60
2019-05-22T23:46:55.899Z,15.50
2019-05-22T23:49:26.330Z,15.50
2019-05-22T23:51:55.930Z,15.50
2019-05-22T23:54:25.913Z,15.40
2019-05-22T23:56:57.486Z,15.40
2019-05-22T23:59:28.267Z,15.40
